England Ranch, South Dakota
Current Conditions -  °F | °C
As of 5:55 PM on Monday 22 Dec 2014 (Local Time) from KPHP Reporting Station
Unknown Precip Unknown Precip  
Wind Chill: 13°   Ceiling: 4600
Heat Index: 29°   Visibility: 9mi
Dew Point: 23°   Wind: 31mph
Humidity: 78%   Direction: 330°NNW
Pressure: 29.61"   Gusts: 39mph
Location:  44.3169°N, 101.368°W
Report Text: KPHP 230055Z AUTO 33027G34KT 9SM UP OVC046 M02/M05 A2961 RMK AO2 PK WND 33037/0030 UPB53SNE53 SLP039 P0000 T10171050
Loading
Personal Weather Stations






























Interactive Weather Map New forecast layout! Learn more

10-Day Weather Forecast

Advertisements
Track Severe Weather on mobile